Time;durP1;ratioP1;P1;durP2;ratioP2;P2;SDS_P1;SDS_P2;PMS_P1;PMS_P2;Temp;Humidity;BMP_temperature;BMP_pressure;BME280_temperature;BME280_humidity;BME280_pressure;Samples;Min_cycle;Max_cycle;Signal;HPM_P1;HPM_P2
2022/07/23 00:01:39;;;;;;;19.55;17.10;;;;;;;21.41;60.90;100269.20;1711850;83;25391;-71
2022/07/23 00:04:05;;;;;;;20.37;16.95;;;;;;;21.39;61.12;100267.41;1711731;83;26123;-69
2022/07/23 00:06:31;;;;;;;22.87;18.67;;;;;;;21.36;60.98;100264.64;1711788;83;25458;-69
2022/07/23 00:08:57;;;;;;;27.07;17.37;;;;;;;21.32;61.04;100258.31;1711776;83;28176;-68
2022/07/23 00:11:23;;;;;;;21.95;16.95;;;;;;;21.29;61.14;100264.01;1711642;83;25519;-68
2022/07/23 00:13:49;;;;;;;20.15;17.35;;;;;;;21.25;61.19;100261.23;1711707;83;25520;-69
2022/07/23 00:16:15;;;;;;;23.40;18.52;;;;;;;21.20;61.32;100255.31;1711753;83;26289;-69
2022/07/23 00:18:41;;;;;;;18.45;16.20;;;;;;;21.17;61.77;100256.85;1711770;83;25647;-69
2022/07/23 00:21:08;;;;;;;22.27;17.25;;;;;;;21.14;61.83;100259.58;1711760;83;27472;-71
2022/07/23 00:23:34;;;;;;;22.73;17.20;;;;;;;21.08;61.99;100259.94;1711653;83;25414;-71
2022/07/23 00:26:00;;;;;;;20.30;16.27;;;;;;;21.04;62.19;100261.88;1711688;83;25557;-69
2022/07/23 00:28:26;;;;;;;19.90;16.97;;;;;;;20.99;61.96;100262.20;1711696;83;25718;-69
2022/07/23 00:30:52;;;;;;;19.70;17.25;;;;;;;20.96;61.94;100262.18;1711802;83;25524;-70
2022/07/23 00:33:19;;;;;;;24.12;18.48;;;;;;;20.94;62.44;100264.52;1711696;83;27501;-68
2022/07/23 00:35:45;;;;;;;19.00;16.97;;;;;;;20.88;62.52;100263.50;1711670;83;25734;-68
2022/07/23 00:38:11;;;;;;;20.20;17.48;;;;;;;20.86;62.40;100266.44;1711847;83;25437;-69
2022/07/23 00:40:39;;;;;;;19.85;17.70;;;;;;;20.83;62.71;100264.45;1711786;83;26139;-68
2022/07/23 00:43:05;;;;;;;21.52;18.02;;;;;;;20.80;62.73;100270.10;1711780;83;25627;-68
2022/07/23 00:45:32;;;;;;;20.97;17.92;;;;;;;20.77;63.01;100270.88;1711704;83;27535;-68
2022/07/23 00:47:59;;;;;;;26.68;18.60;;;;;;;20.73;62.93;100268.67;1711687;83;25673;-68
2022/07/23 00:50:26;;;;;;;23.70;18.15;;;;;;;20.71;62.93;100270.42;1711766;83;25543;-68
2022/07/23 00:52:53;;;;;;;21.57;19.30;;;;;;;20.69;63.00;100268.64;1711773;83;25473;-68
2022/07/23 00:55:20;;;;;;;22.52;18.62;;;;;;;20.67;63.26;100260.55;1711699;81;25376;-70
2022/07/23 00:57:47;;;;;;;20.23;18.02;;;;;;;20.64;63.40;100268.98;1711713;83;28186;-70
2022/07/23 01:00:16;;;;;;;22.80;19.12;;;;;;;20.61;63.25;100268.33;1711676;83;25592;-70
2022/07/23 01:02:43;;;;;;;26.10;19.82;;;;;;;20.57;63.68;100266.14;1711840;83;25571;-70
2022/07/23 01:05:10;;;;;;;23.02;19.87;;;;;;;20.53;63.87;100270.23;1711674;83;25469;-70
2022/07/23 01:07:36;;;;;;;22.62;19.92;;;;;;;20.49;63.75;100273.51;1711753;83;25588;-70
2022/07/23 01:10:30;;;;;;;25.17;20.08;;;;;;;20.46;64.03;100266.02;1711728;83;28104;-70
2022/07/23 01:12:33;;;;;;;26.95;21.10;;;;;;;20.42;64.00;100265.80;1708666;83;25414;-70
2022/07/23 01:15:00;;;;;;;28.87;21.50;;;;;;;20.39;64.03;100261.05;1711695;83;25586;-70
2022/07/23 01:17:27;;;;;;;26.62;20.48;;;;;;;20.36;64.38;100268.07;1711782;83;25561;-70
2022/07/23 01:19:53;;;;;;;30.37;21.55;;;;;;;20.32;64.49;100263.91;1711783;83;25468;-70
2022/07/23 01:22:21;;;;;;;26.20;22.05;;;;;;;20.28;64.55;100267.81;1711723;83;27456;-70
2022/07/23 01:24:47;;;;;;;28.00;21.85;;;;;;;20.24;64.71;100265.00;1711626;83;25384;-68
2022/07/23 01:27:17;;;;;;;27.35;21.93;;;;;;;20.22;64.84;100269.30;1711728;83;25587;-69
2022/07/23 01:29:43;;;;;;;28.20;22.32;;;;;;;20.22;65.03;100269.30;1711736;83;25664;-69
2022/07/23 01:32:10;;;;;;;25.62;22.00;;;;;;;20.20;65.26;100271.05;1691630;83;25743;-68
2022/07/23 01:34:36;;;;;;;27.98;22.15;;;;;;;20.17;65.20;100271.00;1711717;83;27461;-68
2022/07/23 01:37:02;;;;;;;30.80;22.80;;;;;;;20.12;65.50;100267.41;1711648;83;25450;-68
2022/07/23 01:39:28;;;;;;;28.45;22.42;;;;;;;20.06;65.45;100264.81;1711722;83;25456;-68
2022/07/23 01:41:55;;;;;;;33.48;21.00;;;;;;;20.02;65.55;100267.29;1711724;83;26133;-68
2022/07/23 01:44:21;;;;;;;39.83;20.95;;;;;;;19.99;65.65;100266.66;1711842;83;25629;-69
2022/07/23 01:46:48;;;;;;;40.33;21.73;;;;;;;19.97;65.87;100267.03;1711847;83;28274;-68
2022/07/23 01:49:14;;;;;;;26.60;20.88;;;;;;;19.92;65.81;100267.36;1711721;83;25427;-69
2022/07/23 01:51:59;;;;;;;33.92;22.27;;;;;;;19.93;65.85;100269.73;1711795;83;25496;-69
2022/07/23 01:54:09;;;;;;;29.63;22.45;;;;;;;19.93;65.98;100265.62;1709035;83;25564;-69
2022/07/23 01:56:41;;;;;;;24.95;20.70;;;;;;;19.91;66.10;100257.56;1711743;80;25579;-69
2022/07/23 01:59:07;;;;;;;28.45;21.40;;;;;;;19.89;66.25;100255.19;1711697;83;29744;-69
2022/07/23 02:01:33;;;;;;;25.45;21.12;;;;;;;19.87;66.36;100260.27;1711681;83;25390;-69
2022/07/23 02:03:59;;;;;;;28.85;21.23;;;;;;;19.88;66.54;100259.09;1711723;83;25374;-69
2022/07/23 02:06:25;;;;;;;23.90;20.25;;;;;;;19.87;66.49;100256.15;1711656;83;25594;-69
2022/07/23 02:08:51;;;;;;;24.47;21.23;;;;;;;19.88;66.41;100260.45;1711721;83;25584;-69
2022/07/23 02:11:17;;;;;;;23.45;20.45;;;;;;;19.87;66.37;100261.64;1711684;83;27536;-69
2022/07/23 02:13:43;;;;;;;29.95;20.55;;;;;;;19.85;66.47;100254.34;1711389;83;26971;-69
2022/07/23 02:16:09;;;;;;;25.17;21.37;;;;;;;19.85;66.55;100263.16;1711717;83;25411;-69
2022/07/23 02:18:37;;;;;;;25.70;20.45;;;;;;;19.83;66.54;100255.30;1711700;83;25434;-69
2022/07/23 02:21:03;;;;;;;23.90;19.87;;;;;;;19.78;66.70;100257.81;1691642;83;25767;-69
2022/07/23 02:23:30;;;;;;;26.77;20.90;;;;;;;19.78;66.77;100257.00;1711652;83;29652;-69
2022/07/23 02:25:56;;;;;;;24.63;21.62;;;;;;;19.77;66.92;100256.22;1691488;83;25400;-69
2022/07/23 02:28:22;;;;;;;27.42;21.50;;;;;;;19.75;66.97;100258.55;1711709;83;25579;-69
2022/07/23 02:30:48;;;;;;;24.02;21.27;;;;;;;19.71;66.95;100256.29;1711667;83;25769;-69
2022/07/23 02:33:14;;;;;;;29.72;22.32;;;;;;;19.71;67.02;100250.02;1711807;83;25627;-69
2022/07/23 02:35:40;;;;;;;26.15;22.32;;;;;;;19.69;67.14;100248.23;1711810;83;27514;-69
2022/07/23 02:38:06;;;;;;;28.70;22.25;;;;;;;19.68;67.19;100253.50;1711759;83;25777;-69
2022/07/23 02:40:32;;;;;;;30.35;23.15;;;;;;;19.64;67.08;100254.83;1711857;83;25524;-69
2022/07/23 02:42:59;;;;;;;25.68;21.37;;;;;;;19.64;67.35;100252.67;1711802;83;26256;-69
2022/07/23 02:45:25;;;;;;;26.70;21.00;;;;;;;19.59;67.32;100251.03;1711820;83;25527;-69
2022/07/23 02:47:51;;;;;;;28.50;22.15;;;;;;;19.57;67.38;100252.78;1711862;83;27472;-69
2022/07/23 02:50:17;;;;;;;24.12;21.35;;;;;;;19.55;67.67;100241.98;1711768;83;25774;-70
2022/07/23 02:52:44;;;;;;;25.62;20.88;;;;;;;19.51;67.85;100245.23;1711873;83;25606;-69
2022/07/23 02:55:10;;;;;;;25.32;21.85;;;;;;;19.47;67.65;100245.19;1713841;80;25440;-69
2022/07/23 02:57:37;;;;;;;25.88;21.02;;;;;;;19.47;67.85;100246.56;1743252;82;25370;-70
2022/07/23 03:00:07;;;;;;;24.30;21.17;;;;;;;19.46;68.28;100249.11;1743030;82;27487;-69
2022/07/23 03:02:34;;;;;;;24.92;22.07;;;;;;;19.44;67.90;100250.04;1742935;82;25375;-68
2022/07/23 03:05:01;;;;;;;23.55;21.02;;;;;;;19.43;68.14;100251.22;1743002;82;25550;-68
2022/07/23 03:07:27;;;;;;;25.17;20.48;;;;;;;19.44;68.07;100250.04;1742949;82;26150;-68
2022/07/23 03:09:53;;;;;;;26.17;20.60;;;;;;;19.43;68.13;100245.73;1743010;82;25551;-68
2022/07/23 03:12:19;;;;;;;23.80;21.30;;;;;;;19.42;68.18;100245.52;1742967;82;27541;-69
2022/07/23 03:14:45;;;;;;;25.72;20.40;;;;;;;19.44;68.48;100246.52;1742849;82;25725;-69
2022/07/23 03:17:12;;;;;;;24.07;21.12;;;;;;;19.43;68.42;100244.36;1743040;82;25547;-68
2022/07/23 03:19:38;;;;;;;22.55;20.15;;;;;;;19.44;68.68;100242.40;1743016;82;25622;-68
2022/07/23 03:22:05;;;;;;;24.55;20.15;;;;;;;19.43;68.51;100242.18;1743164;82;25544;-68
2022/07/23 03:27:16;;;;;;;22.67;20.27;;;;;;;19.44;68.57;100246.52;1742993;82;25530;-69
2022/07/23 03:29:43;;;;;;;23.22;20.30;;;;;;;19.44;68.79;100244.55;1742999;82;25481;-69
2022/07/23 03:32:09;;;;;;;26.20;20.57;;;;;;;19.46;68.76;100245.00;1743003;82;25515;-69
2022/07/23 03:34:36;;;;;;;23.45;20.65;;;;;;;19.47;68.76;100243.82;1743012;82;25606;-69
2022/07/23 03:37:02;;;;;;;22.75;20.25;;;;;;;19.48;68.90;100248.16;1743098;82;27012;-70
2022/07/23 03:39:29;;;;;;;37.15;23.38;;;;;;;19.50;68.98;100244.45;1742844;82;25871;-70
2022/07/23 03:41:55;;;;;;;31.02;20.72;;;;;;;19.53;68.99;100251.14;1742976;82;25430;-70
2022/07/23 03:44:22;;;;;;;24.92;20.80;;;;;;;19.55;69.00;100249.63;1742913;82;26112;-70
2022/07/23 03:46:48;;;;;;;23.18;19.92;;;;;;;19.57;69.01;100249.25;1742996;82;25463;-70
2022/07/23 03:49:15;;;;;;;26.77;20.97;;;;;;;19.58;69.10;100250.81;1742939;82;27453;-70
2022/07/23 03:51:41;;;;;;;22.87;19.92;;;;;;;19.60;69.22;100247.14;1721977;82;25530;-70
2022/07/23 03:54:08;;;;;;;22.17;19.70;;;;;;;19.64;69.20;100261.69;1742910;82;25568;-70
2022/07/23 03:56:35;;;;;;;26.93;21.30;;;;;;;19.66;69.34;100255.83;1727209;81;25573;-70
2022/07/23 03:59:02;;;;;;;22.55;20.15;;;;;;;19.70;69.60;100257.47;1711814;83;25383;-69
2022/07/23 04:01:28;;;;;;;24.12;20.45;;;;;;;19.75;69.69;100261.29;1711806;83;27556;-69
2022/07/23 04:03:54;;;;;;;24.37;20.30;;;;;;;19.77;69.78;100256.22;1711659;83;25556;-69
2022/07/23 04:06:21;;;;;;;24.63;20.40;;;;;;;19.82;69.77;100255.67;1711752;83;25481;-69
2022/07/23 04:08:47;;;;;;;23.77;20.50;;;;;;;19.87;69.82;100263.01;1711713;83;26101;-68
2022/07/23 04:11:13;;;;;;;22.13;19.75;;;;;;;19.93;69.88;100264.25;1711799;83;25428;-68
2022/07/23 04:13:40;;;;;;;23.05;20.57;;;;;;;20.00;69.95;100266.88;1711757;83;27661;-69
2022/07/23 04:16:06;;;;;;;24.07;20.92;;;;;;;20.06;70.06;100269.52;1711600;83;25615;-69
2022/07/23 04:18:32;;;;;;;23.05;20.57;;;;;;;20.12;70.11;100258.39;1711771;83;25591;-68
2022/07/23 04:20:59;;;;;;;24.87;20.35;;;;;;;20.18;70.05;100265.14;1711753;83;25571;-68
2022/07/23 04:23:25;;;;;;;26.73;21.02;;;;;;;20.27;70.11;100263.47;1711790;83;25559;-68
2022/07/23 04:25:51;;;;;;;26.12;20.92;;;;;;;20.36;70.25;100265.91;1711749;83;27428;-69
2022/07/23 04:28:18;;;;;;;22.60;20.30;;;;;;;20.42;70.08;100266.58;1711676;83;25766;-69
2022/07/23 04:30:44;;;;;;;35.25;22.00;;;;;;;20.50;70.12;100266.08;1711784;83;25398;-70
2022/07/23 04:33:11;;;;;;;26.02;19.90;;;;;;;20.59;70.14;100256.16;1711788;83;25528;-70
2022/07/23 04:35:37;;;;;;;27.05;20.62;;;;;;;20.68;70.19;100253.30;1711769;83;25407;-69
2022/07/23 04:38:04;;;;;;;28.02;19.67;;;;;;;20.79;70.18;100252.61;1711731;83;27455;-68
2022/07/23 04:40:30;;;;;;;23.77;19.42;;;;;;;20.89;70.34;100251.34;1711666;83;25431;-68
2022/07/23 04:42:57;;;;;;;28.62;19.65;;;;;;;21.02;70.18;100256.55;1711742;83;25526;-68
2022/07/23 04:45:24;;;;;;;23.42;19.65;;;;;;;21.14;70.15;100256.83;1711720;83;25590;-68
2022/07/23 04:47:51;;;;;;;24.30;19.73;;;;;;;21.24;69.93;100256.90;1711764;83;25598;-68
2022/07/23 04:50:21;;;;;;;22.67;18.40;;;;;;;21.35;69.80;100247.36;1711812;83;28311;-68
2022/07/23 04:52:45;;;;;;;23.73;19.57;;;;;;;21.47;69.54;100247.66;1711551;83;25837;-68
2022/07/23 04:55:12;;;;;;;22.75;19.27;;;;;;;21.56;69.34;100244.56;1711776;83;25483;-69
2022/07/23 04:57:38;;;;;;;23.15;19.10;;;;;;;21.68;69.16;100250.32;1741187;81;25587;-68
2022/07/23 05:00:05;;;;;;;26.35;20.12;;;;;;;21.79;68.86;100248.39;1748136;81;25565;-68
2022/07/23 05:02:32;;;;;;;24.15;20.05;;;;;;;21.89;68.62;100251.00;1748708;80;27478;-68
2022/07/23 05:04:58;;;;;;;28.32;20.55;;;;;;;22.02;68.38;100256.37;1700266;82;25726;-68
2022/07/23 05:07:24;;;;;;;32.60;20.90;;;;;;;22.12;68.29;100254.83;1743361;82;26353;-68
2022/07/23 05:09:51;;;;;;;30.68;20.88;;;;;;;22.23;68.03;100254.85;1716140;82;25585;-70
2022/07/23 05:12:17;;;;;;;29.23;20.52;;;;;;;22.33;67.75;100258.26;1746291;81;25548;-70
2022/07/23 05:14:43;;;;;;;30.62;20.17;;;;;;;22.42;67.53;100248.23;1742557;82;27371;-69
2022/07/23 05:17:09;;;;;;;26.07;19.35;;;;;;;22.54;67.64;100254.74;1742900;82;25652;-69
2022/07/23 05:19:35;;;;;;;25.57;18.73;;;;;;;22.66;67.20;100252.20;1715794;82;25600;-69
2022/07/23 05:22:02;;;;;;;24.82;18.32;;;;;;;22.76;67.05;100259.69;1746804;82;26154;-69
2022/07/23 05:24:28;;;;;;;24.72;18.25;;;;;;;22.87;66.62;100262.47;1742824;82;25616;-69
2022/07/23 05:26:54;;;;;;;23.83;17.55;;;;;;;22.98;66.18;100265.22;1742745;82;27450;-69
2022/07/23 05:29:20;;;;;;;21.20;16.95;;;;;;;23.08;65.85;100271.35;1717547;82;25492;-68
2022/07/23 05:31:46;;;;;;;19.55;17.45;;;;;;;23.18;65.52;100273.31;1742386;82;25676;-69
2022/07/23 05:34:12;;;;;;;25.15;17.00;;;;;;;23.30;65.11;100274.87;1742604;82;25582;-69
2022/07/23 05:36:38;;;;;;;23.75;15.72;;;;;;;23.42;64.82;100270.92;1734586;81;25432;-69
2022/07/23 05:39:05;;;;;;;20.08;15.65;;;;;;;23.54;64.62;100275.23;1734235;82;27446;-69
2022/07/23 05:41:31;;;;;;;17.17;15.32;;;;;;;23.69;64.41;100272.02;1715170;82;25634;-68
2022/07/23 05:43:57;;;;;;;22.50;14.83;;;;;;;23.83;63.77;100271.22;1737273;82;25585;-68
2022/07/23 05:46:23;;;;;;;17.77;14.18;;;;;;;24.00;63.79;100272.33;1721498;82;26228;-68
2022/07/23 05:48:49;;;;;;;18.55;14.50;;;;;;;24.17;63.44;100267.13;1723914;82;25576;-68
2022/07/23 05:51:21;;;;;;;17.87;14.70;;;;;;;24.36;63.40;100267.22;1737660;82;27099;-68
2022/07/23 05:53:49;;;;;;;15.43;13.65;;;;;;;24.54;62.84;100261.02;1739596;81;25462;-68
2022/07/23 05:56:16;;;;;;;16.80;14.73;;;;;;;24.74;62.78;100264.05;1719195;82;25401;-68
2022/07/23 05:58:43;;;;;;;22.82;17.60;;;;;;;24.95;62.32;100261.69;1719476;82;25617;-69
2022/07/23 06:01:09;;;;;;;19.17;14.33;;;;;;;25.13;61.87;100257.40;1715100;82;25414;-69
2022/07/23 06:03:36;;;;;;;14.45;12.98;;;;;;;25.31;60.61;100254.47;1709877;82;27494;-68
2022/07/23 06:06:02;;;;;;;14.93;13.18;;;;;;;25.46;59.95;100250.19;1723886;82;25629;-68
2022/07/23 06:08:28;;;;;;;17.37;12.47;;;;;;;25.62;59.54;100250.37;1732964;82;25633;-69
2022/07/23 06:10:54;;;;;;;18.57;13.30;;;;;;;25.79;59.46;100251.37;1717410;82;25609;-68
2022/07/23 06:13:21;;;;;;;16.12;12.63;;;;;;;25.97;59.42;100251.19;1727788;82;25635;-68
2022/07/23 06:15:47;;;;;;;18.02;13.50;;;;;;;26.16;58.62;100246.20;1736179;82;27503;-68
2022/07/23 06:18:13;;;;;;;16.12;12.85;;;;;;;26.32;58.32;100246.34;1719194;82;25839;-69
2022/07/23 06:20:40;;;;;;;14.58;12.23;;;;;;;26.47;57.69;100245.53;1726258;82;25549;-68
2022/07/23 06:23:06;;;;;;;12.58;11.28;;;;;;;26.65;57.35;100245.30;1730839;82;25663;-68
2022/07/23 06:25:33;;;;;;;12.53;11.33;;;;;;;26.83;57.00;100247.77;1715029;82;25388;-68
2022/07/23 06:27:59;;;;;;;16.85;11.75;;;;;;;27.03;56.31;100249.23;1734669;82;28220;-68
2022/07/23 06:30:26;;;;;;;15.80;11.90;;;;;;;27.18;55.55;100244.98;1722997;82;25705;-69
2022/07/23 06:32:52;;;;;;;13.28;11.53;;;;;;;27.37;55.24;100248.25;1724314;82;25582;-69
2022/07/23 06:35:18;;;;;;;13.08;11.08;;;;;;;27.58;54.64;100249.82;1733311;82;25723;-69
2022/07/23 06:37:44;;;;;;;12.80;10.78;;;;;;;27.77;53.47;100246.89;1714072;82;25429;-69
2022/07/23 06:40:12;;;;;;;13.15;11.88;;;;;;;27.98;53.65;100246.28;1732552;82;27524;-69
2022/07/23 06:42:39;;;;;;;12.60;11.43;;;;;;;28.19;52.85;100245.80;1724691;82;25547;-69
2022/07/23 06:45:07;;;;;;;12.88;10.93;;;;;;;28.40;52.14;100247.33;1720252;82;25614;-69
2022/07/23 06:47:33;;;;;;;12.98;11.28;;;;;;;28.64;51.58;100248.56;1735635;82;25569;-69
2022/07/23 06:49:59;;;;;;;17.02;10.48;;;;;;;28.91;51.32;100248.91;1716360;82;25709;-69
2022/07/23 06:52:25;;;;;;;10.58;9.63;;;;;;;29.15;50.86;100240.53;1728700;82;27445;-69
2022/07/23 06:54:52;;;;;;;14.65;10.93;;;;;;;29.45;50.33;100247.53;1730773;82;25650;-69
2022/07/23 06:57:19;;;;;;;12.28;10.98;;;;;;;29.70;49.50;100243.42;1747604;80;25577;-69
2022/07/23 06:59:45;;;;;;;12.07;10.58;;;;;;;29.94;48.44;100239.76;1744008;81;25580;-69
2022/07/23 07:02:11;;;;;;;12.10;10.90;;;;;;;30.17;48.19;100243.45;1726249;82;25797;-69
2022/07/23 07:04:37;;;;;;;13.38;10.08;;;;;;;30.41;47.77;100242.55;1742249;82;27480;-69
2022/07/23 07:07:04;;;;;;;12.50;9.95;;;;;;;30.63;47.11;100237.66;1721356;82;26222;-69
2022/07/23 07:09:30;;;;;;;12.93;9.78;;;;;;;30.86;46.86;100239.30;1710007;82;25532;-69
2022/07/23 07:11:57;;;;;;;11.38;10.18;;;;;;;31.12;46.26;100231.64;1740080;82;26230;-69
2022/07/23 07:14:23;;;;;;;11.05;9.40;;;;;;;31.35;45.35;100225.48;1733837;82;25363;-69
2022/07/23 07:16:51;;;;;;;11.53;9.13;;;;;;;31.52;44.00;100234.45;1727265;82;28113;-70
2022/07/23 07:19:19;;;;;;;15.10;11.70;;;;;;;31.74;44.09;100226.05;1717465;82;25388;-69
2022/07/23 07:21:48;;;;;;;12.13;9.78;;;;;;;31.74;44.09;100226.05;1743183;82;25275;-70
2022/07/23 07:24:16;;;;;;;13.58;9.58;;;;;;;31.92;43.11;100228.17;1724616;82;34835;-70
2022/07/23 07:26:43;;;;;;;13.10;9.53;;;;;;;32.12;42.94;100228.61;1747040;82;25609;-71
2022/07/23 07:29:09;;;;;;;11.18;9.98;;;;;;;32.39;42.99;100231.36;1690932;83;27518;-70
2022/07/23 07:31:36;;;;;;;13.88;9.45;;;;;;;32.72;42.70;100221.03;1750176;82;25764;-70
2022/07/23 07:34:02;;;;;;;12.53;9.93;;;;;;;33.03;41.97;100224.33;1750578;82;25634;-70
2022/07/23 07:36:28;;;;;;;10.08;9.15;;;;;;;33.36;40.48;100236.34;1700185;83;25466;-70
2022/07/23 07:38:55;;;;;;;11.88;9.85;;;;;;;33.37;39.04;100229.48;1678979;83;25299;-69
2022/07/23 07:41:23;;;;;;;16.17;10.03;;;;;;;33.41;38.58;100221.70;1696305;84;28271;-70
2022/07/23 07:43:51;;;;;;;10.80;9.28;;;;;;;33.48;38.68;100224.95;1678024;84;25806;-69
2022/07/23 07:46:18;;;;;;;11.50;9.63;;;;;;;33.65;38.45;100219.01;1745773;82;25685;-70
2022/07/23 07:48:44;;;;;;;9.83;8.90;;;;;;;33.81;38.64;100218.66;1744527;82;25458;-69
2022/07/23 07:51:10;;;;;;;14.70;9.90;;;;;;;34.04;38.40;100222.80;1747925;82;25702;-70
2022/07/23 07:53:36;;;;;;;13.03;9.93;;;;;;;34.22;38.15;100219.78;1745115;82;27242;-71
2022/07/23 07:56:04;;;;;;;15.10;11.00;;;;;;;34.47;37.55;100222.01;1747452;82;25602;-70
2022/07/23 07:58:30;;;;;;;11.33;10.20;;;;;;;34.69;37.91;100210.48;1736954;81;25886;-69
2022/07/23 08:00:56;;;;;;;11.93;9.35;;;;;;;34.93;37.65;100218.27;1732151;82;25536;-69
2022/07/23 08:03:23;;;;;;;9.95;8.63;;;;;;;35.17;37.13;100215.41;1734843;80;25754;-69
2022/07/23 08:05:49;;;;;;;85.42;25.97;;;;;;;35.33;36.46;100217.03;1694114;82;28105;-68
2022/07/23 08:08:15;;;;;;;10.35;8.78;;;;;;;35.45;35.64;100227.05;1738387;82;25661;-68
2022/07/23 08:10:43;;;;;;;10.18;8.68;;;;;;;35.24;34.76;100221.95;1737898;82;25462;-68
2022/07/23 08:13:16;;;;;;;9.70;8.70;;;;;;;35.15;34.61;100217.94;1721900;82;25521;-70
2022/07/23 08:15:45;;;;;;;10.63;9.25;;;;;;;35.21;34.93;100214.45;1713934;82;25681;-69
2022/07/23 08:18:11;;;;;;;11.20;9.40;;;;;;;35.30;34.78;100210.97;1735353;82;27533;-69
2022/07/23 08:20:37;;;;;;;10.25;9.23;;;;;;;35.49;34.88;100222.03;1744846;80;25674;-69
2022/07/23 08:23:07;;;;;;;10.80;9.00;;;;;;;35.68;33.94;100220.56;1740130;82;26328;-68
2022/07/23 08:25:42;;;;;;;9.68;8.78;;;;;;;35.58;33.20;100217.70;1699554;84;26035;-69
2022/07/23 08:28:16;;;;;;;9.38;8.38;;;;;;;35.46;32.20;100215.97;1654559;85;25785;-69
2022/07/23 08:30:44;;;;;;;9.85;8.95;;;;;;;35.43;32.83;100216.93;1654783;86;28505;-69
2022/07/23 08:33:17;;;;;;;11.53;8.15;;;;;;;35.44;31.44;100218.49;1701301;83;25742;-70
2022/07/23 08:35:47;;;;;;;10.03;7.85;;;;;;;35.38;32.59;100217.61;1692124;84;25501;-70
2022/07/23 08:38:17;;;;;;;9.08;7.78;;;;;;;35.54;32.63;100224.94;1694761;84;25695;-72
2022/07/23 08:40:51;;;;;;;9.15;8.25;;;;;;;35.85;33.44;100213.84;1695547;84;26124;-74
2022/07/23 08:43:26;;;;;;;10.20;8.53;;;;;;;36.21;32.19;100220.91;1725925;82;27526;-75
2022/07/23 08:45:53;;;;;;;9.00;8.20;;;;;;;36.15;30.76;100211.59;1738428;82;25420;-75
2022/07/23 08:48:22;;;;;;;10.65;7.67;;;;;;;36.18;31.39;100217.02;1702232;83;25751;-72
2022/07/23 08:50:51;;;;;;;8.15;7.45;;;;;;;35.94;30.52;100212.95;1702199;84;25721;-71
2022/07/23 08:53:19;;;;;;;9.35;7.35;;;;;;;35.77;30.24;100222.52;1686702;84;25668;-71
2022/07/23 08:55:47;;;;;;;;;;;;;;;35.55;30.17;100217.27;1739707;82;27457;-76
2022/07/23 08:58:14;;;;;;;12.93;8.90;;;;;;;35.26;30.12;100213.17;1736602;81;25730;-71
2022/07/23 09:00:42;;;;;;;9.23;8.33;;;;;;;35.12;30.94;100213.91;1741751;82;25719;-72
2022/07/23 09:03:23;;;;;;;8.50;7.60;;;;;;;35.16;31.03;100201.84;1732534;82;26150;-74
2022/07/23 09:05:52;;;;;;;9.50;8.20;;;;;;;35.06;30.30;100211.00;1742655;81;25299;-73
2022/07/23 09:08:25;;;;;;;8.83;7.72;;;;;;;35.01;30.67;100210.27;1742845;81;27669;-72
2022/07/23 09:11:01;;;;;;;9.00;8.25;;;;;;;35.13;30.88;100214.06;1741112;81;25766;-72
2022/07/23 09:13:45;;;;;;;9.05;8.15;;;;;;;35.25;29.99;100208.83;1742600;82;26127;-72
2022/07/23 09:16:16;;;;;;;8.58;6.87;;;;;;;35.08;29.88;100204.91;1742496;82;25699;-73
2022/07/23 09:18:53;;;;;;;12.10;8.68;;;;;;;35.11;29.90;100211.73;1706476;83;25629;-74
2022/07/23 09:21:28;;;;;;;11.53;8.43;;;;;;;35.19;29.64;100212.77;1657812;85;27665;-74
2022/07/23 09:24:08;;;;;;;10.20;8.45;;;;;;;35.34;29.55;100206.55;1685889;84;25621;-73
2022/07/23 09:26:44;;;;;;;9.60;8.60;;;;;;;35.38;29.89;100202.91;1679543;83;25629;-72
2022/07/23 09:29:18;;;;;;;8.78;7.40;;;;;;;35.28;29.77;100195.83;1676779;84;26121;-74
2022/07/23 09:31:54;;;;;;;9.70;7.65;;;;;;;35.57;29.93;100193.67;1676490;84;25642;-74
2022/07/23 09:34:32;;;;;;;9.45;6.83;;;;;;;36.09;29.88;100198.86;1676963;85;27593;-73
2022/07/23 09:37:17;;;;;;;9.63;7.95;;;;;;;36.30;28.94;100196.87;1676981;85;33022;-72
2022/07/23 09:39:47;;;;;;;9.03;8.13;;;;;;;36.58;29.17;100194.44;1679473;84;25687;-74
2022/07/23 09:42:21;;;;;;;9.70;8.13;;;;;;;36.75;28.68;100199.55;1690790;84;26256;-73
2022/07/23 09:44:51;;;;;;;10.43;7.40;;;;;;;36.94;28.23;100201.42;1691012;84;25475;-73
2022/07/23 09:47:19;;;;;;;11.30;9.70;;;;;;;36.72;28.01;100194.25;1690630;84;27460;-74
2022/07/23 09:50:09;;;;;;;8.40;7.60;;;;;;;36.83;29.22;100197.20;1690819;84;25632;-72
2022/07/23 09:52:47;;;;;;;9.00;7.37;;;;;;;37.24;27.98;100198.42;1690578;84;26153;-73
2022/07/23 09:55:14;;;;;;;7.87;7.08;;;;;;;37.48;27.40;100190.45;1690782;84;25661;-71
2022/07/23 09:57:44;;;;;;;9.75;6.72;;;;;;;37.84;27.09;100192.44;1690930;84;25710;-73
2022/07/23 10:00:13;;;;;;;8.30;7.17;;;;;;;38.14;26.44;100193.55;1693170;84;26841;-73
2022/07/23 10:02:40;;;;;;;9.83;7.45;;;;;;;38.40;26.90;100186.39;1692861;84;25689;-71
2022/07/23 10:05:07;;;;;;;7.97;7.15;;;;;;;38.80;26.67;100187.33;1692900;84;25792;-71
2022/07/23 10:07:38;;;;;;;8.28;7.47;;;;;;;39.27;26.46;100174.88;1692880;84;25752;-72
2022/07/23 10:10:07;;;;;;;8.73;7.35;;;;;;;39.61;26.11;100177.10;1662389;84;26523;-72
2022/07/23 10:15:18;;;;;;;8.35;6.97;;;;;;;40.09;25.32;100171.77;1659742;85;25738;-70
2022/07/23 10:17:45;;;;;;;10.33;7.70;;;;;;;40.30;24.69;100177.11;1659333;83;25833;-70
2022/07/23 10:20:11;;;;;;;8.43;7.42;;;;;;;40.33;23.96;100171.83;1662113;85;25649;-71
2022/07/23 10:22:42;;;;;;;8.63;7.72;;;;;;;40.51;24.55;100165.60;1667318;84;25413;-72
2022/07/23 10:25:33;;;;;;;9.20;7.95;;;;;;;40.64;24.41;100164.25;1668832;85;27339;-72
2022/07/23 10:28:26;;;;;;;8.25;7.17;;;;;;;40.80;23.94;100166.23;1668003;85;25714;-70
2022/07/23 10:31:30;;;;;;;8.68;7.80;;;;;;;40.75;24.02;100165.62;1668551;84;25686;-72
2022/07/23 10:34:17;;;;;;;11.45;7.60;;;;;;;40.80;23.91;100169.69;1677788;84;26009;-71
2022/07/23 10:37:25;;;;;;;9.23;7.77;;;;;;;41.05;23.08;100162.09;1674686;85;25744;-70
2022/07/23 10:40:20;;;;;;;9.73;8.83;;;;;;;40.81;23.10;100170.62;1658903;83;27331;-70
2022/07/23 10:42:50;;;;;;;9.08;7.80;;;;;;;40.80;23.52;100167.65;1679751;84;25728;-69
2022/07/23 10:45:35;;;;;;;7.95;7.15;;;;;;;40.77;22.83;100162.27;1671000;84;25713;-70
2022/07/23 10:48:23;;;;;;;8.38;6.60;;;;;;;40.81;22.96;100157.08;1676594;85;25676;-68
2022/07/23 10:51:13;;;;;;;12.47;7.97;;;;;;;41.02;22.66;100155.42;1662007;85;25690;-69
2022/07/23 10:53:58;;;;;;;7.95;7.00;;;;;;;41.19;23.09;100165.23;1674226;84;27280;-71
2022/07/23 10:56:59;;;;;;;12.37;7.17;;;;;;;41.22;22.95;100161.34;1636433;86;25782;-69
2022/07/23 10:59:26;;;;;;;7.53;6.60;;;;;;;41.48;23.03;100160.77;1681655;81;25582;-70
2022/07/23 11:01:52;;;;;;;7.65;6.90;;;;;;;41.29;22.11;100161.42;1710971;82;25965;-70
2022/07/23 11:04:18;;;;;;;7.65;6.40;;;;;;;40.84;22.08;100158.89;1634033;86;25654;-69
2022/07/23 11:06:56;;;;;;;6.95;6.20;;;;;;;40.78;22.36;100171.66;1683981;84;27287;-70
2022/07/23 11:09:32;;;;;;;6.83;6.22;;;;;;;40.57;22.63;100161.97;1619829;88;25455;-68
2022/07/23 11:12:25;;;;;;;7.45;6.60;;;;;;;40.68;22.54;100159.09;1654640;85;25761;-66
2022/07/23 11:15:14;;;;;;;10.28;7.22;;;;;;;40.59;22.89;100157.30;1668652;84;25702;-66
2022/07/23 11:17:55;;;;;;;11.22;7.35;;;;;;;40.67;23.51;100153.28;1691497;83;25678;-69
2022/07/23 11:20:23;;;;;;;7.15;6.53;;;;;;;40.62;23.35;100152.67;1689353;84;29465;-69
2022/07/23 11:22:58;;;;;;;9.03;6.67;;;;;;;40.94;23.30;100148.77;1674958;84;25776;-69
2022/07/23 11:25:32;;;;;;;7.03;6.45;;;;;;;41.34;23.20;100147.84;1670414;83;25422;-69
2022/07/23 11:28:20;;;;;;;7.80;6.90;;;;;;;41.71;22.32;100148.59;1657722;85;25946;-67